createdAt,value
2019-04-23T00:02:40.735Z,85.40
2019-04-23T00:04:55.577Z,84.71
2019-04-23T00:07:51.521Z,84.86
2019-04-23T00:10:09.600Z,84.16
2019-04-23T00:12:44.204Z,86.71
2019-04-23T00:17:38.975Z,93.88
2019-04-23T00:20:03.410Z,92.03
2019-04-23T00:22:36.733Z,94.26
2019-04-23T00:27:50.425Z,89.98
2019-04-23T00:30:18.808Z,88.57
2019-04-23T00:32:46.170Z,86.29
2019-04-23T00:35:23.670Z,86.27
2019-04-23T00:37:47.423Z,86.95
2019-04-23T00:40:19.136Z,92.73
2019-04-23T00:42:47.792Z,95.31
2019-04-23T00:45:24.700Z,95.86
2019-04-23T00:47:51.368Z,95.74
2019-04-23T00:52:55.058Z,97.71
2019-04-23T00:55:21.473Z,93.36
2019-04-23T00:58:02.844Z,97.44
2019-04-23T01:00:35.389Z,97.72
2019-04-23T01:03:03.636Z,94.63
2019-04-23T01:05:24.853Z,91.38
2019-04-23T01:07:58.137Z,90.75
2019-04-23T01:10:45.948Z,90.59
2019-04-23T01:13:14.434Z,95.10
2019-04-23T01:15:39.652Z,95.03
2019-04-23T01:18:21.575Z,93.14
2019-04-23T01:20:52.994Z,94.57
2019-04-23T01:23:11.719Z,96.14
2019-04-23T01:25:53.701Z,94.63
2019-04-23T01:28:42.254Z,97.26
2019-04-23T01:33:53.203Z,98.19
2019-04-23T01:36:21.870Z,97.70
2019-04-23T01:38:58.514Z,96.39
2019-04-23T01:41:12.890Z,95.26
2019-04-23T01:43:44.034Z,99.11
2019-04-23T01:48:48.594Z,97.73
2019-04-23T01:51:07.811Z,96.96
2019-04-23T01:53:45.773Z,98.15
2019-04-23T01:56:11.417Z,97.13
2019-04-23T01:58:43.992Z,96.95
2019-04-23T02:01:11.783Z,97.34
2019-04-23T02:03:50.023Z,96.18
2019-04-23T02:06:14.891Z,98.65
2019-04-23T02:08:48.033Z,100.00
2019-04-23T02:11:13.137Z,100.00
2019-04-23T02:13:51.395Z,100.00
2019-04-23T02:16:19.138Z,97.58
2019-04-23T02:18:48.047Z,93.74
2019-04-23T02:21:41.346Z,96.02
2019-04-23T02:29:03.346Z,100.00
2019-04-23T02:38:55.938Z,100.00
2019-04-23T02:41:46.552Z,100.00
2019-04-23T02:46:20.952Z,100.00
2019-04-23T02:51:37.039Z,100.00
2019-04-23T02:54:16.052Z,100.00
2019-04-23T02:56:47.083Z,100.00
2019-04-23T02:59:10.839Z,100.00
2019-04-23T03:02:00.374Z,100.00
2019-04-23T03:04:16.805Z,100.00
2019-04-23T03:06:38.884Z,100.00
2019-04-23T03:11:41.818Z,100.00
2019-04-23T03:16:56.452Z,100.00
2019-04-23T03:22:07.403Z,100.00
2019-04-23T03:24:57.786Z,100.00
2019-04-23T03:27:23.334Z,100.00
2019-04-23T03:29:57.958Z,100.00
2019-04-23T03:37:32.976Z,100.00
2019-04-23T03:42:28.561Z,100.00
2019-04-23T03:45:03.147Z,100.00
2019-04-23T03:47:24.811Z,100.00
2019-04-23T03:50:02.514Z,100.00
2019-04-23T03:52:27.668Z,100.00
2019-04-23T03:55:10.212Z,100.00
2019-04-23T03:57:24.636Z,100.00
2019-04-23T04:02:49.000Z,100.00
2019-04-23T04:04:49.870Z,100.00
2019-04-23T04:10:11.205Z,100.00
2019-04-23T04:12:29.881Z,100.00
2019-04-23T04:24:59.034Z,100.00
2019-04-23T04:27:36.860Z,100.00
2019-04-23T04:30:00.942Z,100.00
2019-04-23T04:42:58.577Z,100.00
2019-04-23T04:45:14.297Z,100.00
2019-04-23T04:55:05.264Z,100.00
2019-04-23T05:00:16.805Z,100.00
2019-04-23T05:17:59.340Z,100.00
2019-04-23T05:20:21.286Z,100.00
2019-04-23T05:22:59.459Z,100.00
2019-04-23T05:25:12.614Z,100.00
2019-04-23T05:27:55.287Z,100.00
2019-04-23T05:30:28.762Z,100.00
2019-04-23T05:32:48.949Z,100.00
2019-04-23T05:35:44.424Z,100.00
2019-04-23T05:37:58.475Z,100.00
2019-04-23T05:40:30.529Z,100.00
2019-04-23T05:45:24.852Z,100.00
2019-04-23T05:50:25.860Z,100.00
2019-04-23T05:52:58.048Z,100.00
2019-04-23T05:55:18.852Z,100.00
2019-04-23T05:57:52.106Z,100.00
2019-04-23T06:00:28.864Z,100.00
2019-04-23T06:02:59.238Z,100.00
2019-04-23T06:05:29.004Z,100.00
2019-04-23T06:07:55.209Z,100.00
2019-04-23T06:10:30.619Z,100.00
2019-04-23T06:12:52.170Z,100.00
2019-04-23T06:15:30.328Z,100.00
2019-04-23T06:17:54.181Z,98.14
2019-04-23T06:20:28.681Z,98.46
2019-04-23T06:23:01.185Z,90.62
2019-04-23T06:25:42.222Z,89.32
2019-04-23T06:28:01.999Z,86.56
2019-04-23T06:30:37.582Z,87.68
2019-04-23T06:33:02.364Z,95.39
2019-04-23T06:35:46.947Z,88.17
2019-04-23T06:38:24.163Z,86.14
2019-04-23T06:40:27.426Z,87.64
2019-04-23T06:43:05.307Z,91.23
2019-04-23T06:45:32.548Z,89.57
2019-04-23T06:48:12.031Z,89.35
2019-04-23T06:50:41.762Z,89.09
2019-04-23T06:53:04.353Z,87.99
2019-04-23T06:55:42.547Z,85.47
2019-04-23T06:58:13.456Z,85.79
2019-04-23T07:00:44.642Z,85.83
2019-04-23T07:03:16.458Z,89.02
2019-04-23T07:06:11.954Z,89.23
2019-04-23T07:09:03.146Z,85.89
2019-04-23T07:11:17.225Z,84.60
2019-04-23T07:13:53.419Z,86.42
2019-04-23T07:16:09.579Z,85.31
2019-04-23T07:18:54.432Z,85.47
2019-04-23T07:23:45.578Z,87.25
2019-04-23T07:26:25.773Z,86.28
2019-04-23T07:28:50.224Z,82.21
2019-04-23T07:31:20.244Z,83.45
2019-04-23T07:34:10.150Z,82.99
2019-04-23T07:39:27.315Z,80.22
2019-04-23T07:44:43.802Z,78.16
2019-04-23T07:47:24.854Z,76.43
2019-04-23T07:49:50.625Z,77.14
2019-04-23T07:54:58.772Z,76.94
2019-04-23T07:57:20.167Z,77.90
2019-04-23T08:00:02.515Z,77.79
2019-04-23T08:02:24.204Z,74.43
2019-04-23T08:07:24.650Z,68.45
2019-04-23T08:09:54.695Z,70.90
2019-04-23T08:12:25.571Z,68.12
2019-04-23T08:15:01.295Z,69.78
2019-04-23T08:17:24.369Z,67.78
2019-04-23T08:20:02.532Z,71.02
2019-04-23T08:22:25.837Z,69.28
2019-04-23T08:25:08.971Z,70.12
2019-04-23T08:27:45.175Z,69.56
2019-04-23T08:30:06.070Z,72.68
2019-04-23T08:32:35.033Z,74.97
2019-04-23T08:35:13.788Z,75.83
2019-04-23T08:40:15.082Z,75.09
2019-04-23T08:45:29.649Z,78.50
2019-04-23T08:48:09.558Z,78.21
2019-04-23T08:50:32.217Z,77.23
2019-04-23T08:53:06.991Z,79.02
2019-04-23T08:55:38.739Z,78.90
2019-04-23T08:57:59.805Z,80.32
2019-04-23T09:00:32.619Z,78.57
2019-04-23T09:03:04.589Z,79.08
2019-04-23T09:05:50.545Z,79.36
2019-04-23T09:08:14.438Z,78.46
2019-04-23T09:10:42.299Z,80.85
2019-04-23T09:13:35.282Z,79.43
2019-04-23T09:18:09.706Z,80.06
2019-04-23T09:20:30.897Z,80.32
2019-04-23T09:23:11.592Z,81.39
2019-04-23T09:25:47.704Z,82.44
2019-04-23T09:28:16.001Z,80.97
2019-04-23T09:30:49.568Z,83.64
2019-04-23T09:33:28.861Z,84.07
2019-04-23T09:35:57.268Z,84.02
2019-04-23T09:38:28.179Z,82.72
2019-04-23T09:41:09.881Z,82.88
2019-04-23T09:43:46.022Z,81.94
2019-04-23T09:46:25.699Z,84.56
2019-04-23T09:49:00.081Z,85.56
2019-04-23T09:51:27.787Z,82.61
2019-04-23T09:53:56.309Z,82.48
2019-04-23T09:56:28.581Z,84.14
2019-04-23T09:58:59.415Z,81.81
2019-04-23T10:03:46.275Z,81.51
2019-04-23T10:06:22.638Z,84.39
2019-04-23T10:08:51.939Z,82.65
2019-04-23T10:11:19.665Z,84.86
2019-04-23T10:13:48.384Z,84.24
2019-04-23T10:16:19.826Z,85.63
2019-04-23T10:18:48.913Z,82.99
2019-04-23T10:21:19.368Z,85.52
2019-04-23T10:23:49.590Z,83.04
2019-04-23T10:26:19.633Z,83.21
2019-04-23T10:28:54.031Z,84.02
2019-04-23T10:31:23.022Z,81.93
2019-04-23T10:33:52.347Z,82.03
2019-04-23T10:36:25.404Z,81.75
2019-04-23T10:39:00.650Z,81.00
2019-04-23T10:41:23.121Z,80.03
2019-04-23T10:43:56.730Z,80.24
2019-04-23T10:46:48.847Z,80.52
2019-04-23T10:49:51.045Z,80.67
2019-04-23T10:52:07.088Z,77.40
2019-04-23T10:57:17.122Z,81.06
2019-04-23T11:02:31.709Z,80.83
2019-04-23T11:07:20.533Z,78.77
2019-04-23T11:09:49.633Z,79.92
2019-04-23T11:12:24.262Z,82.19
2019-04-23T11:14:53.165Z,83.79
2019-04-23T11:17:21.525Z,80.85
2019-04-23T11:19:50.832Z,81.45
2019-04-23T11:22:42.667Z,80.45
2019-04-23T11:24:55.323Z,83.14
2019-04-23T11:27:22.256Z,82.53
2019-04-23T11:29:48.767Z,80.60
2019-04-23T11:35:06.674Z,81.00
2019-04-23T11:37:25.102Z,80.17
2019-04-23T11:39:57.301Z,80.76
2019-04-23T11:42:19.369Z,79.27
2019-04-23T11:44:52.133Z,80.87
2019-04-23T11:47:45.615Z,79.61
2019-04-23T11:52:30.095Z,79.18
2019-04-23T11:54:53.518Z,82.22
2019-04-23T11:57:40.968Z,79.26
2019-04-23T11:59:53.627Z,78.20
2019-04-23T12:02:43.343Z,79.35
2019-04-23T12:05:21.527Z,78.14
2019-04-23T12:07:39.683Z,76.35
2019-04-23T12:13:03.183Z,78.41
2019-04-23T12:15:53.396Z,78.92
2019-04-23T12:18:17.042Z,82.17
2019-04-23T12:20:52.742Z,82.55
2019-04-23T12:23:29.638Z,83.54
2019-04-23T12:25:45.758Z,83.90
2019-04-23T12:28:18.101Z,81.60
2019-04-23T12:30:49.103Z,82.90
2019-04-23T12:33:21.166Z,82.97
2019-04-23T12:35:39.998Z,84.99
2019-04-23T12:40:44.345Z,85.07
2019-04-23T12:45:43.599Z,87.42
2019-04-23T12:48:36.057Z,84.49
2019-04-23T12:53:37.979Z,90.55
2019-04-23T12:55:52.302Z,89.57
2019-04-23T13:00:48.514Z,89.77
2019-04-23T13:05:42.181Z,90.53
2019-04-23T13:08:33.725Z,89.29
2019-04-23T13:10:49.588Z,92.31
2019-04-23T13:13:27.712Z,89.80
2019-04-23T13:15:51.939Z,92.25
2019-04-23T13:20:54.034Z,91.93
2019-04-23T13:25:57.091Z,89.07
2019-04-23T13:28:36.171Z,88.45
2019-04-23T13:31:08.682Z,87.16
2019-04-23T13:33:38.953Z,86.43
2019-04-23T13:38:47.254Z,87.21
2019-04-23T13:41:17.378Z,84.02
2019-04-23T13:43:40.775Z,85.92
2019-04-23T13:48:39.666Z,85.01
2019-04-23T13:51:21.132Z,83.01
2019-04-23T13:56:15.095Z,85.60
2019-04-23T14:03:50.579Z,84.46
2019-04-23T14:08:55.194Z,84.99
2019-04-23T14:21:25.251Z,86.19
2019-04-23T14:24:11.987Z,86.54
2019-04-23T14:26:34.919Z,84.61
2019-04-23T14:28:51.210Z,86.71
2019-04-23T14:31:21.920Z,85.21
2019-04-23T14:39:18.276Z,84.44
2019-04-23T14:41:26.777Z,84.52
2019-04-23T14:44:10.483Z,85.83
2019-04-23T14:49:03.542Z,85.85
2019-04-23T14:54:17.329Z,85.45
2019-04-23T14:57:03.979Z,85.28
2019-04-23T14:59:07.378Z,84.58
2019-04-23T15:01:47.706Z,84.03
2019-04-23T15:04:10.912Z,83.92
2019-04-23T15:06:54.844Z,84.04
2019-04-23T15:09:22.838Z,84.24
2019-04-23T15:11:52.745Z,84.29
2019-04-23T15:14:17.169Z,84.29
2019-04-23T15:16:54.436Z,87.26
2019-04-23T15:19:34.575Z,86.66
2019-04-23T15:24:27.997Z,83.40
2019-04-23T15:29:09.655Z,81.47
2019-04-23T15:34:23.817Z,79.76
2019-04-23T15:37:13.408Z,81.33
2019-04-23T15:39:33.194Z,80.33
2019-04-23T15:42:04.857Z,78.32
2019-04-23T15:44:21.831Z,77.78
2019-04-23T15:47:02.033Z,78.96
2019-04-23T15:49:36.375Z,80.07
2019-04-23T15:52:07.052Z,82.49
2019-04-23T15:56:59.503Z,84.01
2019-04-23T15:59:45.127Z,84.33
2019-04-23T16:01:42.973Z,81.87
2019-04-23T16:04:09.744Z,84.49
2019-04-23T16:06:38.962Z,84.66
2019-04-23T16:09:40.221Z,83.03
2019-04-23T16:11:59.146Z,84.40
2019-04-23T16:14:49.717Z,86.52
2019-04-23T16:17:13.823Z,83.92
2019-04-23T16:22:30.335Z,82.48
2019-04-23T16:25:06.774Z,84.56
2019-04-23T16:27:29.324Z,85.65
2019-04-23T16:35:29.267Z,87.99
2019-04-23T16:38:01.442Z,87.29
2019-04-23T16:40:19.639Z,87.65
2019-04-23T16:42:48.532Z,87.68
2019-04-23T16:47:46.760Z,89.20
2019-04-23T16:50:18.134Z,89.00
2019-04-23T16:52:52.147Z,88.08
2019-04-23T16:55:16.562Z,88.00
2019-04-23T16:57:59.890Z,89.27
2019-04-23T17:02:56.408Z,89.68
2019-04-23T17:05:23.671Z,88.88
2019-04-23T17:08:23.558Z,89.58
2019-04-23T17:13:07.195Z,90.30
2019-04-23T17:15:25.792Z,89.10
2019-04-23T17:17:57.511Z,89.27
2019-04-23T17:20:30.714Z,89.00
2019-04-23T17:23:10.585Z,89.77
2019-04-23T17:25:26.370Z,89.96
2019-04-23T17:28:03.698Z,89.27
2019-04-23T17:30:28.639Z,89.90
2019-04-23T17:33:16.204Z,90.59
2019-04-23T17:36:05.460Z,90.82
2019-04-23T17:45:08.303Z,95.78
2019-04-23T17:47:41.248Z,94.97
2019-04-23T17:52:44.337Z,92.58
2019-04-23T17:57:45.941Z,92.53
2019-04-23T18:00:25.458Z,95.06
2019-04-23T18:02:55.148Z,95.49
2019-04-23T18:05:24.829Z,94.41
2019-04-23T18:08:01.425Z,93.18
2019-04-23T18:15:16.049Z,91.89
2019-04-23T18:20:36.920Z,94.32
2019-04-23T18:25:43.333Z,94.58
2019-04-23T18:28:08.477Z,95.18
2019-04-23T18:30:56.658Z,97.80
2019-04-23T18:36:04.311Z,97.20
2019-04-23T18:38:44.408Z,95.49
2019-04-23T18:43:34.098Z,94.59
2019-04-23T18:46:14.479Z,94.74
2019-04-23T18:51:06.305Z,99.15
2019-04-23T19:09:16.342Z,95.48
2019-04-23T19:11:58.149Z,96.73
2019-04-23T19:14:32.186Z,95.77
2019-04-23T19:17:33.547Z,97.67
2019-04-23T19:19:33.566Z,97.10
2019-04-23T19:24:31.482Z,94.97
2019-04-23T19:32:01.226Z,96.80
2019-04-23T19:34:58.963Z,99.79
2019-04-23T19:42:13.031Z,100.00
2019-04-23T19:44:43.952Z,100.00
2019-04-23T19:47:37.337Z,100.00
2019-04-23T19:49:41.933Z,100.00
2019-04-23T19:52:13.835Z,100.00
2019-04-23T19:57:19.679Z,100.00
2019-04-23T19:59:51.081Z,100.00
2019-04-23T20:04:46.122Z,100.00
2019-04-23T20:07:33.112Z,100.00
2019-04-23T20:09:56.968Z,100.00
2019-04-23T20:12:25.623Z,100.00
2019-04-23T20:14:56.468Z,100.00
2019-04-23T20:17:38.011Z,100.00
2019-04-23T20:19:57.021Z,100.00
2019-04-23T20:25:18.559Z,100.00
2019-04-23T20:27:26.430Z,100.00
2019-04-23T20:30:32.308Z,100.00
2019-04-23T20:31:33.488Z,100.00
2019-04-23T20:35:16.564Z,100.00
2019-04-23T20:40:32.988Z,100.00
2019-04-23T20:42:53.031Z,100.00
2019-04-23T20:45:28.867Z,100.00
2019-04-23T20:50:26.218Z,100.00
2019-04-23T20:52:54.662Z,100.00
2019-04-23T20:55:45.162Z,100.00
2019-04-23T20:58:09.818Z,100.00
2019-04-23T21:01:02.796Z,100.00
2019-04-23T21:03:39.062Z,100.00
2019-04-23T21:05:59.965Z,100.00
2019-04-23T21:08:38.906Z,100.00
2019-04-23T21:11:00.048Z,100.00
2019-04-23T21:16:13.153Z,100.00
2019-04-23T21:20:57.942Z,100.00
2019-04-23T21:23:30.256Z,100.00
2019-04-23T21:26:08.479Z,100.00
2019-04-23T21:28:44.045Z,100.00
2019-04-23T21:31:16.374Z,100.00
2019-04-23T21:33:55.385Z,100.00
2019-04-23T21:36:25.390Z,100.00
2019-04-23T21:41:52.706Z,100.00
2019-04-23T21:46:51.117Z,100.00
2019-04-23T21:54:06.113Z,100.00
2019-04-23T21:56:44.498Z,100.00
2019-04-23T21:59:07.413Z,100.00
2019-04-23T22:01:44.889Z,100.00
2019-04-23T22:04:25.351Z,100.00
2019-04-23T22:07:02.883Z,100.00
2019-04-23T22:09:22.421Z,100.00
2019-04-23T22:16:58.030Z,100.00
2019-04-23T22:19:19.901Z,100.00
2019-04-23T22:24:27.267Z,100.00
2019-04-23T22:26:54.796Z,100.00
2019-04-23T22:29:38.041Z,100.00
2019-04-23T22:31:56.667Z,100.00
2019-04-23T22:39:40.365Z,100.00
2019-04-23T22:42:15.024Z,100.00
2019-04-23T22:44:56.194Z,100.00
2019-04-23T22:49:45.715Z,100.00
2019-04-23T22:52:08.795Z,100.00
2019-04-23T22:54:51.042Z,100.00
2019-04-23T22:57:07.802Z,100.00
2019-04-23T23:02:25.315Z,100.00
2019-04-23T23:05:04.114Z,100.00
2019-04-23T23:10:00.838Z,100.00
2019-04-23T23:12:22.974Z,100.00
2019-04-23T23:17:20.713Z,100.00
2019-04-23T23:20:18.697Z,100.00
2019-04-23T23:22:44.869Z,100.00
2019-04-23T23:25:06.602Z,100.00
2019-04-23T23:27:26.719Z,100.00
2019-04-23T23:30:05.252Z,100.00
2019-04-23T23:35:07.898Z,100.00
2019-04-23T23:37:27.647Z,100.00
2019-04-23T23:40:10.675Z,100.00
2019-04-23T23:42:28.181Z,100.00
2019-04-23T23:45:06.908Z,100.00
2019-04-23T23:50:16.212Z,100.00
2019-04-23T23:52:31.144Z,100.00
2019-04-23T23:55:08.342Z,100.00
